Fredericksburg, Ohio
Current Conditions -  °F | °C
As of 9:56 AM on Monday 22 Dec 2014 (Local Time) from KBJJ Reporting Station
Haze Haze  
Wind Chill: 22°   Ceiling: Unl
Heat Index: 28°   Visibility: 5mi
Dew Point: 24°   Wind: 6mph
Humidity: 85%   Direction: 130°SE
Pressure: 30.08"   Gusts: NA
Location:  40.68°N, 81.87°W
Report Text: KBJJ 221456Z AUTO 13005KT 5SM BR SCT046 M02/M04 A3008 RMK AO2 SLP202 I3000 T10221044 58002 TSNO
Loading
Personal Weather Stations






























Interactive Weather Map New forecast layout! Learn more

10-Day Weather Forecast

Advertisements
Track Severe Weather on mobile